sensor_id;sensor_type;location;lat;lon;timestamp;P1;durP1;ratioP1;P2;durP2;ratioP2
10471;SDS011;5283;48.876;8.962;2022-12-07T00:02:00;12.13;;;10.63;;
10471;SDS011;5283;48.876;8.962;2022-12-07T00:04:26;12.43;;;10.63;;
10471;SDS011;5283;48.876;8.962;2022-12-07T00:06:53;11.73;;;10.33;;
10471;SDS011;5283;48.876;8.962;2022-12-07T00:09:20;11.70;;;10.27;;
10471;SDS011;5283;48.876;8.962;2022-12-07T00:11:48;10.47;;;9.37;;
10471;SDS011;5283;48.876;8.962;2022-12-07T00:14:16;10.10;;;8.97;;
10471;SDS011;5283;48.876;8.962;2022-12-07T00:16:44;11.47;;;9.40;;
10471;SDS011;5283;48.876;8.962;2022-12-07T00:19:11;10.43;;;9.37;;
10471;SDS011;5283;48.876;8.962;2022-12-07T00:21:39;12.90;;;10.30;;
10471;SDS011;5283;48.876;8.962;2022-12-07T00:24:06;14.77;;;11.53;;
10471;SDS011;5283;48.876;8.962;2022-12-07T00:26:34;14.47;;;11.57;;
10471;SDS011;5283;48.876;8.962;2022-12-07T00:29:04;12.03;;;10.30;;
10471;SDS011;5283;48.876;8.962;2022-12-07T00:31:33;11.50;;;9.37;;
10471;SDS011;5283;48.876;8.962;2022-12-07T00:34:05;11.90;;;8.67;;
10471;SDS011;5283;48.876;8.962;2022-12-07T00:36:32;11.77;;;9.63;;
10471;SDS011;5283;48.876;8.962;2022-12-07T00:38:59;11.13;;;9.20;;
10471;SDS011;5283;48.876;8.962;2022-12-07T00:41:27;10.57;;;9.03;;
10471;SDS011;5283;48.876;8.962;2022-12-07T00:43:55;12.00;;;9.73;;
10471;SDS011;5283;48.876;8.962;2022-12-07T00:46:22;11.33;;;8.73;;
10471;SDS011;5283;48.876;8.962;2022-12-07T00:48:49;11.60;;;9.60;;
10471;SDS011;5283;48.876;8.962;2022-12-07T00:51:18;12.13;;;9.83;;
10471;SDS011;5283;48.876;8.962;2022-12-07T00:53:46;11.63;;;10.00;;
10471;SDS011;5283;48.876;8.962;2022-12-07T00:56:22;13.77;;;10.73;;
10471;SDS011;5283;48.876;8.962;2022-12-07T00:58:51;14.53;;;11.47;;
10471;SDS011;5283;48.876;8.962;2022-12-07T01:01:19;14.30;;;11.23;;
10471;SDS011;5283;48.876;8.962;2022-12-07T01:03:46;23.03;;;11.73;;
10471;SDS011;5283;48.876;8.962;2022-12-07T01:06:14;12.93;;;11.17;;
10471;SDS011;5283;48.876;8.962;2022-12-07T01:08:42;15.87;;;11.20;;
10471;SDS011;5283;48.876;8.962;2022-12-07T01:11:09;14.63;;;12.07;;
10471;SDS011;5283;48.876;8.962;2022-12-07T01:13:40;14.20;;;11.57;;
10471;SDS011;5283;48.876;8.962;2022-12-07T01:16:07;14.10;;;11.60;;
10471;SDS011;5283;48.876;8.962;2022-12-07T01:18:36;13.67;;;11.17;;
10471;SDS011;5283;48.876;8.962;2022-12-07T01:21:07;14.20;;;11.10;;
10471;SDS011;5283;48.876;8.962;2022-12-07T01:23:34;15.43;;;11.67;;
10471;SDS011;5283;48.876;8.962;2022-12-07T01:26:02;16.10;;;12.07;;
10471;SDS011;5283;48.876;8.962;2022-12-07T01:28:31;17.30;;;12.83;;
10471;SDS011;5283;48.876;8.962;2022-12-07T01:30:59;16.60;;;13.00;;
10471;SDS011;5283;48.876;8.962;2022-12-07T01:33:29;17.97;;;12.67;;
10471;SDS011;5283;48.876;8.962;2022-12-07T01:36:39;16.20;;;12.10;;
10471;SDS011;5283;48.876;8.962;2022-12-07T01:38:49;17.37;;;11.47;;
10471;SDS011;5283;48.876;8.962;2022-12-07T01:41:19;16.63;;;13.17;;
10471;SDS011;5283;48.876;8.962;2022-12-07T01:46:54;17.90;;;12.90;;
10471;SDS011;5283;48.876;8.962;2022-12-07T01:49:23;15.93;;;12.53;;
10471;SDS011;5283;48.876;8.962;2022-12-07T01:52:03;17.40;;;12.63;;
10471;SDS011;5283;48.876;8.962;2022-12-07T01:54:32;20.53;;;14.00;;
10471;SDS011;5283;48.876;8.962;2022-12-07T01:57:00;18.07;;;13.73;;
10471;SDS011;5283;48.876;8.962;2022-12-07T01:59:27;19.17;;;14.07;;
10471;SDS011;5283;48.876;8.962;2022-12-07T02:01:54;17.63;;;14.00;;
10471;SDS011;5283;48.876;8.962;2022-12-07T02:04:22;18.53;;;14.87;;
10471;SDS011;5283;48.876;8.962;2022-12-07T02:06:49;17.43;;;14.10;;
10471;SDS011;5283;48.876;8.962;2022-12-07T02:09:17;17.13;;;13.63;;
10471;SDS011;5283;48.876;8.962;2022-12-07T02:11:44;18.77;;;13.37;;
10471;SDS011;5283;48.876;8.962;2022-12-07T02:14:11;17.80;;;13.77;;
10471;SDS011;5283;48.876;8.962;2022-12-07T02:16:49;19.80;;;14.33;;
10471;SDS011;5283;48.876;8.962;2022-12-07T02:25:42;17.50;;;13.70;;
10471;SDS011;5283;48.876;8.962;2022-12-07T02:28:01;16.23;;;12.83;;
10471;SDS011;5283;48.876;8.962;2022-12-07T02:30:53;17.03;;;12.60;;
10471;SDS011;5283;48.876;8.962;2022-12-07T02:33:26;16.30;;;13.53;;
10471;SDS011;5283;48.876;8.962;2022-12-07T02:39:14;14.67;;;12.27;;
10471;SDS011;5283;48.876;8.962;2022-12-07T02:42:02;15.27;;;12.60;;
10471;SDS011;5283;48.876;8.962;2022-12-07T02:44:36;16.87;;;12.60;;
10471;SDS011;5283;48.876;8.962;2022-12-07T02:47:04;16.57;;;13.00;;
10471;SDS011;5283;48.876;8.962;2022-12-07T02:49:34;14.93;;;12.03;;
10471;SDS011;5283;48.876;8.962;2022-12-07T02:52:03;13.63;;;11.20;;
10471;SDS011;5283;48.876;8.962;2022-12-07T02:54:30;14.43;;;10.40;;
10471;SDS011;5283;48.876;8.962;2022-12-07T03:02:46;15.60;;;11.47;;
10471;SDS011;5283;48.876;8.962;2022-12-07T03:11:14;18.83;;;13.60;;
10471;SDS011;5283;48.876;8.962;2022-12-07T03:14:02;17.47;;;13.03;;
10471;SDS011;5283;48.876;8.962;2022-12-07T03:16:46;18.70;;;12.87;;
10471;SDS011;5283;48.876;8.962;2022-12-07T03:19:27;19.67;;;13.80;;
10471;SDS011;5283;48.876;8.962;2022-12-07T03:21:58;19.03;;;14.07;;
10471;SDS011;5283;48.876;8.962;2022-12-07T03:24:47;17.80;;;13.47;;
10471;SDS011;5283;48.876;8.962;2022-12-07T03:27:19;16.87;;;13.17;;
10471;SDS011;5283;48.876;8.962;2022-12-07T03:32:24;18.30;;;12.90;;
10471;SDS011;5283;48.876;8.962;2022-12-07T03:42:32;14.40;;;11.20;;
10471;SDS011;5283;48.876;8.962;2022-12-07T03:45:00;13.97;;;11.40;;
10471;SDS011;5283;48.876;8.962;2022-12-07T03:47:35;13.80;;;10.43;;
10471;SDS011;5283;48.876;8.962;2022-12-07T03:50:19;11.33;;;9.07;;
10471;SDS011;5283;48.876;8.962;2022-12-07T03:53:02;11.40;;;9.40;;
10471;SDS011;5283;48.876;8.962;2022-12-07T03:55:35;11.27;;;8.80;;
10471;SDS011;5283;48.876;8.962;2022-12-07T03:58:06;12.17;;;8.33;;
10471;SDS011;5283;48.876;8.962;2022-12-07T04:00:36;11.27;;;9.00;;
10471;SDS011;5283;48.876;8.962;2022-12-07T04:03:03;11.27;;;9.07;;
10471;SDS011;5283;48.876;8.962;2022-12-07T04:05:30;11.30;;;9.20;;
10471;SDS011;5283;48.876;8.962;2022-12-07T04:07:57;13.07;;;9.53;;
10471;SDS011;5283;48.876;8.962;2022-12-07T04:10:23;11.70;;;9.70;;
10471;SDS011;5283;48.876;8.962;2022-12-07T04:12:50;12.37;;;9.37;;
10471;SDS011;5283;48.876;8.962;2022-12-07T04:15:17;10.80;;;9.10;;
10471;SDS011;5283;48.876;8.962;2022-12-07T04:17:44;11.13;;;8.97;;
10471;SDS011;5283;48.876;8.962;2022-12-07T04:20:10;9.07;;;7.80;;
10471;SDS011;5283;48.876;8.962;2022-12-07T04:22:37;11.77;;;9.30;;
10471;SDS011;5283;48.876;8.962;2022-12-07T04:25:05;10.17;;;8.07;;
10471;SDS011;5283;48.876;8.962;2022-12-07T04:27:32;10.70;;;7.53;;
10471;SDS011;5283;48.876;8.962;2022-12-07T04:29:59;10.07;;;7.33;;
10471;SDS011;5283;48.876;8.962;2022-12-07T04:32:26;9.03;;;7.13;;
10471;SDS011;5283;48.876;8.962;2022-12-07T04:34:53;9.13;;;7.23;;
10471;SDS011;5283;48.876;8.962;2022-12-07T04:37:20;7.67;;;6.27;;
10471;SDS011;5283;48.876;8.962;2022-12-07T04:39:47;8.57;;;6.60;;
10471;SDS011;5283;48.876;8.962;2022-12-07T04:42:14;7.00;;;5.87;;
10471;SDS011;5283;48.876;8.962;2022-12-07T04:44:41;7.37;;;6.10;;
10471;SDS011;5283;48.876;8.962;2022-12-07T04:47:07;8.50;;;7.10;;
10471;SDS011;5283;48.876;8.962;2022-12-07T04:49:34;7.63;;;6.70;;
10471;SDS011;5283;48.876;8.962;2022-12-07T04:52:01;10.07;;;7.57;;
10471;SDS011;5283;48.876;8.962;2022-12-07T04:54:28;9.23;;;7.33;;
10471;SDS011;5283;48.876;8.962;2022-12-07T04:56:54;9.60;;;7.13;;
10471;SDS011;5283;48.876;8.962;2022-12-07T04:59:21;7.60;;;6.37;;
10471;SDS011;5283;48.876;8.962;2022-12-07T05:01:48;8.03;;;6.20;;
10471;SDS011;5283;48.876;8.962;2022-12-07T05:04:14;8.07;;;5.90;;
10471;SDS011;5283;48.876;8.962;2022-12-07T05:06:42;7.27;;;6.23;;
10471;SDS011;5283;48.876;8.962;2022-12-07T05:09:08;8.63;;;6.40;;
10471;SDS011;5283;48.876;8.962;2022-12-07T05:11:35;8.53;;;6.93;;
10471;SDS011;5283;48.876;8.962;2022-12-07T05:14:06;10.53;;;7.67;;
10471;SDS011;5283;48.876;8.962;2022-12-07T05:16:37;8.43;;;6.53;;
10471;SDS011;5283;48.876;8.962;2022-12-07T05:19:04;8.93;;;7.17;;
10471;SDS011;5283;48.876;8.962;2022-12-07T05:21:32;8.60;;;7.40;;
10471;SDS011;5283;48.876;8.962;2022-12-07T05:23:58;10.07;;;7.40;;
10471;SDS011;5283;48.876;8.962;2022-12-07T05:26:25;9.87;;;7.90;;
10471;SDS011;5283;48.876;8.962;2022-12-07T05:28:54;10.27;;;7.60;;
10471;SDS011;5283;48.876;8.962;2022-12-07T05:31:22;10.00;;;7.77;;
10471;SDS011;5283;48.876;8.962;2022-12-07T05:33:50;9.57;;;7.17;;
10471;SDS011;5283;48.876;8.962;2022-12-07T05:36:16;9.43;;;6.70;;
10471;SDS011;5283;48.876;8.962;2022-12-07T05:38:43;8.90;;;6.47;;
10471;SDS011;5283;48.876;8.962;2022-12-07T05:41:11;8.77;;;7.20;;
10471;SDS011;5283;48.876;8.962;2022-12-07T05:44:00;11.30;;;8.33;;
10471;SDS011;5283;48.876;8.962;2022-12-07T05:46:26;13.17;;;8.97;;
10471;SDS011;5283;48.876;8.962;2022-12-07T05:48:53;10.03;;;8.10;;
10471;SDS011;5283;48.876;8.962;2022-12-07T05:51:20;11.17;;;8.63;;
10471;SDS011;5283;48.876;8.962;2022-12-07T05:53:47;11.40;;;8.73;;
10471;SDS011;5283;48.876;8.962;2022-12-07T05:56:13;13.90;;;10.80;;
10471;SDS011;5283;48.876;8.962;2022-12-07T05:58:40;13.47;;;10.27;;
10471;SDS011;5283;48.876;8.962;2022-12-07T06:01:25;13.20;;;9.93;;
10471;SDS011;5283;48.876;8.962;2022-12-07T06:03:52;11.90;;;8.87;;
10471;SDS011;5283;48.876;8.962;2022-12-07T06:06:19;10.60;;;8.33;;
10471;SDS011;5283;48.876;8.962;2022-12-07T06:08:46;10.47;;;8.27;;
10471;SDS011;5283;48.876;8.962;2022-12-07T06:11:12;10.37;;;7.80;;
10471;SDS011;5283;48.876;8.962;2022-12-07T06:13:58;10.97;;;7.70;;
10471;SDS011;5283;48.876;8.962;2022-12-07T06:16:24;10.43;;;7.50;;
10471;SDS011;5283;48.876;8.962;2022-12-07T06:18:51;11.97;;;7.80;;
10471;SDS011;5283;48.876;8.962;2022-12-07T06:21:18;8.87;;;7.20;;
10471;SDS011;5283;48.876;8.962;2022-12-07T06:23:44;8.97;;;7.20;;
10471;SDS011;5283;48.876;8.962;2022-12-07T06:26:11;11.70;;;8.63;;
10471;SDS011;5283;48.876;8.962;2022-12-07T06:28:38;11.10;;;8.50;;
10471;SDS011;5283;48.876;8.962;2022-12-07T06:31:04;12.27;;;7.90;;
10471;SDS011;5283;48.876;8.962;2022-12-07T06:33:34;9.57;;;7.40;;
10471;SDS011;5283;48.876;8.962;2022-12-07T06:36:01;9.27;;;7.20;;
10471;SDS011;5283;48.876;8.962;2022-12-07T06:38:28;9.50;;;7.40;;
10471;SDS011;5283;48.876;8.962;2022-12-07T06:40:54;7.27;;;6.57;;
10471;SDS011;5283;48.876;8.962;2022-12-07T06:43:21;5.83;;;5.23;;
10471;SDS011;5283;48.876;8.962;2022-12-07T06:45:48;7.10;;;5.33;;
10471;SDS011;5283;48.876;8.962;2022-12-07T06:48:14;5.73;;;4.77;;
10471;SDS011;5283;48.876;8.962;2022-12-07T06:50:41;5.63;;;4.27;;
10471;SDS011;5283;48.876;8.962;2022-12-07T06:53:13;5.37;;;4.10;;
10471;SDS011;5283;48.876;8.962;2022-12-07T06:55:41;5.77;;;4.43;;
10471;SDS011;5283;48.876;8.962;2022-12-07T06:58:08;5.03;;;4.40;;
10471;SDS011;5283;48.876;8.962;2022-12-07T07:00:35;4.77;;;4.27;;
10471;SDS011;5283;48.876;8.962;2022-12-07T07:03:01;4.40;;;4.00;;
10471;SDS011;5283;48.876;8.962;2022-12-07T07:05:28;4.30;;;3.90;;
10471;SDS011;5283;48.876;8.962;2022-12-07T07:07:55;3.90;;;3.50;;
10471;SDS011;5283;48.876;8.962;2022-12-07T07:10:42;4.00;;;3.60;;
10471;SDS011;5283;48.876;8.962;2022-12-07T07:13:08;4.90;;;4.20;;
10471;SDS011;5283;48.876;8.962;2022-12-07T07:15:37;3.70;;;3.37;;
10471;SDS011;5283;48.876;8.962;2022-12-07T07:18:04;4.13;;;3.73;;
10471;SDS011;5283;48.876;8.962;2022-12-07T07:20:32;5.30;;;4.13;;
10471;SDS011;5283;48.876;8.962;2022-12-07T07:22:59;4.20;;;3.80;;
10471;SDS011;5283;48.876;8.962;2022-12-07T07:25:26;4.10;;;3.70;;
10471;SDS011;5283;48.876;8.962;2022-12-07T07:27:52;4.63;;;4.07;;
10471;SDS011;5283;48.876;8.962;2022-12-07T07:30:19;4.83;;;4.20;;
10471;SDS011;5283;48.876;8.962;2022-12-07T07:32:46;4.80;;;4.30;;
10471;SDS011;5283;48.876;8.962;2022-12-07T07:35:13;5.00;;;4.30;;
10471;SDS011;5283;48.876;8.962;2022-12-07T07:37:40;9.60;;;8.10;;
10471;SDS011;5283;48.876;8.962;2022-12-07T07:40:07;7.47;;;5.13;;
10471;SDS011;5283;48.876;8.962;2022-12-07T07:42:35;7.97;;;5.10;;
10471;SDS011;5283;48.876;8.962;2022-12-07T07:45:02;8.97;;;7.10;;
10471;SDS011;5283;48.876;8.962;2022-12-07T07:47:29;6.27;;;5.37;;
10471;SDS011;5283;48.876;8.962;2022-12-07T07:49:56;11.03;;;7.33;;
10471;SDS011;5283;48.876;8.962;2022-12-07T07:52:23;7.30;;;5.20;;
10471;SDS011;5283;48.876;8.962;2022-12-07T07:54:50;8.50;;;6.60;;
10471;SDS011;5283;48.876;8.962;2022-12-07T07:57:16;5.30;;;4.53;;
10471;SDS011;5283;48.876;8.962;2022-12-07T07:59:43;6.00;;;4.60;;
10471;SDS011;5283;48.876;8.962;2022-12-07T08:02:14;5.37;;;4.83;;
10471;SDS011;5283;48.876;8.962;2022-12-07T08:04:42;5.00;;;4.50;;
10471;SDS011;5283;48.876;8.962;2022-12-07T08:07:09;4.73;;;4.20;;
10471;SDS011;5283;48.876;8.962;2022-12-07T08:09:37;5.67;;;4.60;;
10471;SDS011;5283;48.876;8.962;2022-12-07T08:12:03;5.90;;;4.27;;
10471;SDS011;5283;48.876;8.962;2022-12-07T08:14:31;5.40;;;4.90;;
10471;SDS011;5283;48.876;8.962;2022-12-07T08:16:58;5.40;;;4.33;;
10471;SDS011;5283;48.876;8.962;2022-12-07T08:19:25;5.50;;;4.70;;
10471;SDS011;5283;48.876;8.962;2022-12-07T08:21:51;7.10;;;6.10;;
10471;SDS011;5283;48.876;8.962;2022-12-07T08:24:18;23.63;;;7.53;;
10471;SDS011;5283;48.876;8.962;2022-12-07T08:26:45;8.17;;;6.50;;
10471;SDS011;5283;48.876;8.962;2022-12-07T08:29:11;8.03;;;5.97;;
10471;SDS011;5283;48.876;8.962;2022-12-07T08:31:38;25.23;;;6.07;;
10471;SDS011;5283;48.876;8.962;2022-12-07T08:34:05;9.43;;;6.43;;
10471;SDS011;5283;48.876;8.962;2022-12-07T08:36:32;11.47;;;8.63;;
10471;SDS011;5283;48.876;8.962;2022-12-07T08:38:59;9.30;;;7.00;;
10471;SDS011;5283;48.876;8.962;2022-12-07T08:41:45;9.43;;;7.17;;
10471;SDS011;5283;48.876;8.962;2022-12-07T08:44:12;6.53;;;5.77;;
10471;SDS011;5283;48.876;8.962;2022-12-07T08:46:46;6.03;;;4.60;;
10471;SDS011;5283;48.876;8.962;2022-12-07T08:49:18;5.37;;;4.87;;
10471;SDS011;5283;48.876;8.962;2022-12-07T08:51:49;4.97;;;4.20;;
10471;SDS011;5283;48.876;8.962;2022-12-07T08:54:17;5.93;;;4.87;;
10471;SDS011;5283;48.876;8.962;2022-12-07T08:56:45;5.17;;;4.30;;
10471;SDS011;5283;48.876;8.962;2022-12-07T08:59:14;4.50;;;4.10;;
10471;SDS011;5283;48.876;8.962;2022-12-07T09:01:43;4.30;;;3.90;;
10471;SDS011;5283;48.876;8.962;2022-12-07T09:04:10;3.97;;;3.57;;
10471;SDS011;5283;48.876;8.962;2022-12-07T09:06:37;4.03;;;3.40;;
10471;SDS011;5283;48.876;8.962;2022-12-07T09:09:04;3.90;;;3.50;;
10471;SDS011;5283;48.876;8.962;2022-12-07T09:11:33;3.80;;;3.50;;
10471;SDS011;5283;48.876;8.962;2022-12-07T09:13:59;4.23;;;3.83;;
10471;SDS011;5283;48.876;8.962;2022-12-07T09:16:26;3.60;;;3.30;;
10471;SDS011;5283;48.876;8.962;2022-12-07T09:18:53;3.97;;;3.33;;
10471;SDS011;5283;48.876;8.962;2022-12-07T09:21:19;4.53;;;4.10;;
10471;SDS011;5283;48.876;8.962;2022-12-07T09:23:46;4.27;;;3.60;;
10471;SDS011;5283;48.876;8.962;2022-12-07T09:26:13;3.73;;;3.37;;
10471;SDS011;5283;48.876;8.962;2022-12-07T09:28:39;4.93;;;3.80;;
10471;SDS011;5283;48.876;8.962;2022-12-07T09:31:06;5.23;;;4.13;;
10471;SDS011;5283;48.876;8.962;2022-12-07T09:33:52;4.33;;;3.70;;
10471;SDS011;5283;48.876;8.962;2022-12-07T09:36:20;5.57;;;4.00;;
10471;SDS011;5283;48.876;8.962;2022-12-07T09:38:47;4.20;;;3.80;;
10471;SDS011;5283;48.876;8.962;2022-12-07T09:41:13;3.83;;;3.53;;
10471;SDS011;5283;48.876;8.962;2022-12-07T09:43:41;4.00;;;3.60;;
10471;SDS011;5283;48.876;8.962;2022-12-07T09:46:09;3.80;;;3.50;;
10471;SDS011;5283;48.876;8.962;2022-12-07T09:48:43;3.80;;;3.37;;
10471;SDS011;5283;48.876;8.962;2022-12-07T09:51:15;4.83;;;3.70;;
10471;SDS011;5283;48.876;8.962;2022-12-07T09:53:48;4.80;;;3.43;;
10471;SDS011;5283;48.876;8.962;2022-12-07T09:56:16;4.70;;;3.90;;
10471;SDS011;5283;48.876;8.962;2022-12-07T09:58:44;3.80;;;3.40;;
10471;SDS011;5283;48.876;8.962;2022-12-07T10:01:13;3.90;;;3.50;;
10471;SDS011;5283;48.876;8.962;2022-12-07T10:03:45;3.60;;;3.30;;
10471;SDS011;5283;48.876;8.962;2022-12-07T10:06:15;4.40;;;3.43;;
10471;SDS011;5283;48.876;8.962;2022-12-07T10:08:41;3.83;;;3.30;;
10471;SDS011;5283;48.876;8.962;2022-12-07T10:11:09;3.27;;;2.97;;
10471;SDS011;5283;48.876;8.962;2022-12-07T10:13:38;3.43;;;3.13;;
10471;SDS011;5283;48.876;8.962;2022-12-07T10:16:35;3.77;;;3.10;;
10471;SDS011;5283;48.876;8.962;2022-12-07T10:19:17;2.93;;;2.73;;
10471;SDS011;5283;48.876;8.962;2022-12-07T10:24:41;3.27;;;2.80;;
10471;SDS011;5283;48.876;8.962;2022-12-07T10:27:17;5.30;;;3.00;;
10471;SDS011;5283;48.876;8.962;2022-12-07T10:29:52;3.00;;;2.80;;
10471;SDS011;5283;48.876;8.962;2022-12-07T10:34:46;3.47;;;2.90;;
10471;SDS011;5283;48.876;8.962;2022-12-07T10:37:19;2.80;;;2.60;;
10471;SDS011;5283;48.876;8.962;2022-12-07T10:39:47;2.63;;;2.43;;
10471;SDS011;5283;48.876;8.962;2022-12-07T10:42:19;2.90;;;2.70;;
10471;SDS011;5283;48.876;8.962;2022-12-07T10:45:09;3.10;;;2.70;;
10471;SDS011;5283;48.876;8.962;2022-12-07T10:47:44;5.27;;;3.10;;
10471;SDS011;5283;48.876;8.962;2022-12-07T11:04:21;6.87;;;5.53;;
10471;SDS011;5283;48.876;8.962;2022-12-07T11:07:12;6.30;;;4.80;;
10471;SDS011;5283;48.876;8.962;2022-12-07T11:09:50;6.13;;;5.17;;
10471;SDS011;5283;48.876;8.962;2022-12-07T11:20:53;7.57;;;6.53;;
10471;SDS011;5283;48.876;8.962;2022-12-07T11:26:20;7.17;;;6.23;;
10471;SDS011;5283;48.876;8.962;2022-12-07T11:29:18;7.10;;;5.63;;
10471;SDS011;5283;48.876;8.962;2022-12-07T11:35:21;6.53;;;5.63;;
10471;SDS011;5283;48.876;8.962;2022-12-07T11:37:57;7.97;;;5.90;;
10471;SDS011;5283;48.876;8.962;2022-12-07T11:40:31;6.30;;;5.37;;
10471;SDS011;5283;48.876;8.962;2022-12-07T11:43:09;7.03;;;6.10;;
10471;SDS011;5283;48.876;8.962;2022-12-07T11:46:09;7.33;;;6.60;;
10471;SDS011;5283;48.876;8.962;2022-12-07T11:48:41;7.47;;;6.30;;
10471;SDS011;5283;48.876;8.962;2022-12-07T11:51:15;8.03;;;6.20;;
10471;SDS011;5283;48.876;8.962;2022-12-07T11:53:46;7.93;;;6.30;;
10471;SDS011;5283;48.876;8.962;2022-12-07T11:56:23;6.87;;;6.00;;
10471;SDS011;5283;48.876;8.962;2022-12-07T11:59:01;6.33;;;5.73;;
10471;SDS011;5283;48.876;8.962;2022-12-07T12:07:32;8.73;;;6.50;;
10471;SDS011;5283;48.876;8.962;2022-12-07T12:13:24;8.17;;;7.30;;
10471;SDS011;5283;48.876;8.962;2022-12-07T12:21:31;7.93;;;7.03;;
10471;SDS011;5283;48.876;8.962;2022-12-07T12:27:03;9.13;;;7.30;;
10471;SDS011;5283;48.876;8.962;2022-12-07T12:29:34;7.80;;;7.00;;
10471;SDS011;5283;48.876;8.962;2022-12-07T12:32:06;8.47;;;7.00;;
10471;SDS011;5283;48.876;8.962;2022-12-07T12:34:40;9.93;;;7.83;;
10471;SDS011;5283;48.876;8.962;2022-12-07T12:42:45;9.17;;;6.73;;
10471;SDS011;5283;48.876;8.962;2022-12-07T12:54:05;7.27;;;6.23;;
10471;SDS011;5283;48.876;8.962;2022-12-07T12:56:41;8.90;;;7.30;;
10471;SDS011;5283;48.876;8.962;2022-12-07T12:59:35;10.40;;;8.30;;
10471;SDS011;5283;48.876;8.962;2022-12-07T13:18:41;8.63;;;7.70;;
10471;SDS011;5283;48.876;8.962;2022-12-07T13:23:35;10.03;;;8.23;;
10471;SDS011;5283;48.876;8.962;2022-12-07T13:28:45;9.13;;;7.50;;
10471;SDS011;5283;48.876;8.962;2022-12-07T13:31:40;8.70;;;7.00;;
10471;SDS011;5283;48.876;8.962;2022-12-07T13:36:58;10.53;;;7.70;;
10471;SDS011;5283;48.876;8.962;2022-12-07T13:39:27;8.70;;;7.30;;
10471;SDS011;5283;48.876;8.962;2022-12-07T13:41:55;36.73;;;8.60;;
10471;SDS011;5283;48.876;8.962;2022-12-07T13:44:24;8.23;;;6.73;;
10471;SDS011;5283;48.876;8.962;2022-12-07T13:49:48;8.23;;;6.60;;
10471;SDS011;5283;48.876;8.962;2022-12-07T13:52:24;8.97;;;7.23;;
10471;SDS011;5283;48.876;8.962;2022-12-07T13:54:57;8.20;;;6.70;;
10471;SDS011;5283;48.876;8.962;2022-12-07T13:57:27;7.07;;;6.37;;
10471;SDS011;5283;48.876;8.962;2022-12-07T13:59:57;7.73;;;6.20;;
10471;SDS011;5283;48.876;8.962;2022-12-07T14:02:28;8.27;;;6.30;;
10471;SDS011;5283;48.876;8.962;2022-12-07T14:06:02;6.43;;;5.30;;
10471;SDS011;5283;48.876;8.962;2022-12-07T14:07:57;8.80;;;6.30;;
10471;SDS011;5283;48.876;8.962;2022-12-07T14:10:32;6.67;;;5.80;;
10471;SDS011;5283;48.876;8.962;2022-12-07T14:13:02;7.97;;;5.90;;
10471;SDS011;5283;48.876;8.962;2022-12-07T14:15:51;7.23;;;6.40;;
10471;SDS011;5283;48.876;8.962;2022-12-07T14:18:28;7.53;;;6.30;;
10471;SDS011;5283;48.876;8.962;2022-12-07T14:21:03;8.73;;;6.50;;
10471;SDS011;5283;48.876;8.962;2022-12-07T14:23:32;9.40;;;7.27;;
10471;SDS011;5283;48.876;8.962;2022-12-07T14:26:06;9.37;;;6.93;;
10471;SDS011;5283;48.876;8.962;2022-12-07T14:28:37;8.87;;;7.80;;
10471;SDS011;5283;48.876;8.962;2022-12-07T14:31:08;11.60;;;7.40;;
10471;SDS011;5283;48.876;8.962;2022-12-07T14:33:41;9.47;;;7.83;;
10471;SDS011;5283;48.876;8.962;2022-12-07T14:36:09;9.63;;;7.63;;
10471;SDS011;5283;48.876;8.962;2022-12-07T14:38:39;10.33;;;8.53;;
10471;SDS011;5283;48.876;8.962;2022-12-07T14:41:16;10.60;;;9.00;;
10471;SDS011;5283;48.876;8.962;2022-12-07T14:44:10;10.67;;;8.70;;
10471;SDS011;5283;48.876;8.962;2022-12-07T14:46:57;11.53;;;9.17;;
10471;SDS011;5283;48.876;8.962;2022-12-07T14:49:44;12.10;;;9.43;;
10471;SDS011;5283;48.876;8.962;2022-12-07T14:52:18;11.90;;;9.90;;
10471;SDS011;5283;48.876;8.962;2022-12-07T14:55:12;12.10;;;10.37;;
10471;SDS011;5283;48.876;8.962;2022-12-07T14:57:42;13.23;;;10.23;;
10471;SDS011;5283;48.876;8.962;2022-12-07T15:00:12;15.50;;;10.60;;
10471;SDS011;5283;48.876;8.962;2022-12-07T15:02:41;14.80;;;10.73;;
10471;SDS011;5283;48.876;8.962;2022-12-07T15:05:07;14.57;;;10.50;;
10471;SDS011;5283;48.876;8.962;2022-12-07T15:07:37;13.13;;;10.63;;
10471;SDS011;5283;48.876;8.962;2022-12-07T15:10:05;14.33;;;11.33;;
10471;SDS011;5283;48.876;8.962;2022-12-07T15:12:39;13.10;;;10.17;;
10471;SDS011;5283;48.876;8.962;2022-12-07T15:15:05;14.73;;;11.03;;
10471;SDS011;5283;48.876;8.962;2022-12-07T15:17:32;13.67;;;10.40;;
10471;SDS011;5283;48.876;8.962;2022-12-07T15:19:59;14.07;;;10.13;;
10471;SDS011;5283;48.876;8.962;2022-12-07T15:22:26;12.60;;;10.43;;
10471;SDS011;5283;48.876;8.962;2022-12-07T15:24:53;12.80;;;10.10;;
10471;SDS011;5283;48.876;8.962;2022-12-07T15:27:19;13.43;;;10.83;;
10471;SDS011;5283;48.876;8.962;2022-12-07T15:29:46;15.60;;;10.03;;
10471;SDS011;5283;48.876;8.962;2022-12-07T15:32:13;12.73;;;9.77;;
10471;SDS011;5283;48.876;8.962;2022-12-07T15:34:39;14.13;;;11.40;;
10471;SDS011;5283;48.876;8.962;2022-12-07T15:37:07;12.57;;;10.23;;
10471;SDS011;5283;48.876;8.962;2022-12-07T15:39:35;13.47;;;9.40;;
10471;SDS011;5283;48.876;8.962;2022-12-07T15:42:02;12.37;;;9.67;;
10471;SDS011;5283;48.876;8.962;2022-12-07T15:44:29;10.93;;;9.57;;
10471;SDS011;5283;48.876;8.962;2022-12-07T15:47:15;13.73;;;10.27;;
10471;SDS011;5283;48.876;8.962;2022-12-07T15:49:42;13.83;;;10.77;;
10471;SDS011;5283;48.876;8.962;2022-12-07T15:52:09;11.70;;;9.93;;
10471;SDS011;5283;48.876;8.962;2022-12-07T15:54:35;16.20;;;10.43;;
10471;SDS011;5283;48.876;8.962;2022-12-07T15:57:02;14.63;;;10.50;;
10471;SDS011;5283;48.876;8.962;2022-12-07T15:59:29;14.23;;;10.90;;
10471;SDS011;5283;48.876;8.962;2022-12-07T16:01:56;14.93;;;11.17;;
10471;SDS011;5283;48.876;8.962;2022-12-07T16:04:23;16.60;;;11.60;;
10471;SDS011;5283;48.876;8.962;2022-12-07T16:06:50;12.93;;;10.93;;
10471;SDS011;5283;48.876;8.962;2022-12-07T16:09:17;12.43;;;10.00;;
10471;SDS011;5283;48.876;8.962;2022-12-07T16:11:44;13.00;;;10.67;;
10471;SDS011;5283;48.876;8.962;2022-12-07T16:14:11;13.33;;;10.17;;
10471;SDS011;5283;48.876;8.962;2022-12-07T16:16:37;14.33;;;10.43;;
10471;SDS011;5283;48.876;8.962;2022-12-07T16:19:06;13.00;;;9.63;;
10471;SDS011;5283;48.876;8.962;2022-12-07T16:21:34;13.90;;;10.53;;
10471;SDS011;5283;48.876;8.962;2022-12-07T16:24:01;12.70;;;10.07;;
10471;SDS011;5283;48.876;8.962;2022-12-07T16:26:28;13.80;;;10.30;;
10471;SDS011;5283;48.876;8.962;2022-12-07T16:28:55;12.27;;;10.23;;
10471;SDS011;5283;48.876;8.962;2022-12-07T16:31:23;14.47;;;10.60;;
10471;SDS011;5283;48.876;8.962;2022-12-07T16:33:55;13.00;;;9.97;;
10471;SDS011;5283;48.876;8.962;2022-12-07T16:36:23;11.10;;;8.90;;
10471;SDS011;5283;48.876;8.962;2022-12-07T16:39:05;12.27;;;8.70;;
10471;SDS011;5283;48.876;8.962;2022-12-07T16:41:32;13.53;;;9.50;;
10471;SDS011;5283;48.876;8.962;2022-12-07T16:44:03;12.60;;;9.27;;
10471;SDS011;5283;48.876;8.962;2022-12-07T16:46:31;11.10;;;8.83;;
10471;SDS011;5283;48.876;8.962;2022-12-07T16:48:59;11.40;;;8.70;;
10471;SDS011;5283;48.876;8.962;2022-12-07T16:51:26;12.00;;;9.30;;
10471;SDS011;5283;48.876;8.962;2022-12-07T16:53:53;10.70;;;8.03;;
10471;SDS011;5283;48.876;8.962;2022-12-07T16:56:20;11.43;;;8.97;;
10471;SDS011;5283;48.876;8.962;2022-12-07T16:58:47;10.33;;;7.97;;
10471;SDS011;5283;48.876;8.962;2022-12-07T17:01:17;9.27;;;7.57;;
10471;SDS011;5283;48.876;8.962;2022-12-07T17:03:45;10.87;;;8.50;;
10471;SDS011;5283;48.876;8.962;2022-12-07T17:06:13;9.77;;;8.07;;
10471;SDS011;5283;48.876;8.962;2022-12-07T17:08:41;10.13;;;7.30;;
10471;SDS011;5283;48.876;8.962;2022-12-07T17:11:19;10.27;;;7.73;;
10471;SDS011;5283;48.876;8.962;2022-12-07T17:13:47;8.97;;;7.27;;
10471;SDS011;5283;48.876;8.962;2022-12-07T17:16:34;8.80;;;6.80;;
10471;SDS011;5283;48.876;8.962;2022-12-07T17:19:05;8.90;;;6.80;;